Portada
METAR-TAF:

METAR-TAF

Aeropuertos :

Aeropuerto de Pointe Vele

Futuna, Francia

latitud: 14-19S, longitud: 178-07W, altitud: 6 m

METAR: falta

Hora: 00:23 (12:23 UTC)

Pronóstico

El informe se hizo hace 1 hora y 23 minutos, a las 11:00 UTC
Pronóstico válido del 15 a las 12 UTC al 16 a las 12 UTC
Viento 12 kt del este-sureste
Visibilidad 10 km o más
Nubes dispersas a una altura de 2000 ft
Nubes dispersas a una altura de 4500 ft
Probabilidad 40% :
Temporalmente
del 15 a las 12 UTC al 16 a las 12 UTC
Visibilidad: 4000 m
Cielo nuboso a una altura de 1400 ft
Escasas nubes a una altura de 2000 ft, Cumulonimbus.
chaparrones de lluvia,

TAF: NLWF 151100Z 1512/1612 11012KT 9999 SCT020 SCT045 PROB40 TEMPO 1512/1612 4000 SHRA BKN014 FEW020CB

Observaciones y pronósticos meteorológicos de más de 4000 aeropuertos (mensajes METAR y TAF).

Los puntos amarillos y rojos representan las estaciones disponibles.

Ponga el ratón en el punto deseado para ver el nombre de la estación.

Haga clic para ver las observaciones y los pronósticos meteorológicos.

Para cambiar el mapa : haga clic en los botones verdes con una cruz de color negro para hacer un zoom, en el botón verde con un guión para alejar o en las flechas verdes para mapas adyacentes.


METAR-TAF: